createdAt,value
2019-03-11T00:01:28.146Z,76.11
2019-03-11T00:03:57.786Z,75.90
2019-03-11T00:06:27.750Z,75.75
2019-03-11T00:08:57.418Z,75.63
2019-03-11T00:11:27.402Z,75.50
2019-03-11T00:13:57.050Z,75.47
2019-03-11T00:16:27.216Z,75.24
2019-03-11T00:18:57.887Z,75.15
2019-03-11T00:21:27.934Z,74.96
2019-03-11T00:23:57.999Z,74.83
2019-03-11T00:26:28.067Z,74.41
2019-03-11T00:28:58.285Z,74.22
2019-03-11T00:31:28.658Z,73.98
2019-03-11T00:33:58.294Z,73.80
2019-03-11T00:36:28.480Z,73.36
2019-03-11T00:38:58.368Z,73.31
2019-03-11T00:41:28.286Z,72.83
2019-03-11T00:43:58.211Z,72.78
2019-03-11T00:46:28.829Z,72.83
2019-03-11T00:48:58.726Z,72.55
2019-03-11T00:51:28.696Z,72.37
2019-03-11T00:53:58.678Z,72.28
2019-03-11T00:56:28.474Z,72.05
2019-03-11T00:58:58.315Z,71.57
2019-03-11T01:01:28.066Z,71.10
2019-03-11T01:03:57.995Z,71.37
2019-03-11T01:06:28.563Z,70.97
2019-03-11T01:08:58.250Z,70.88
2019-03-11T01:11:28.141Z,70.78
2019-03-11T01:13:57.769Z,70.57
2019-03-11T01:16:27.395Z,70.59
2019-03-11T01:18:57.124Z,70.27
2019-03-11T01:21:27.064Z,70.39
2019-03-11T01:23:56.742Z,70.39
2019-03-11T01:26:26.415Z,70.40
2019-03-11T01:28:56.048Z,70.26
2019-03-11T01:31:25.697Z,70.00
2019-03-11T01:33:55.588Z,70.41
2019-03-11T01:36:25.523Z,69.60
2019-03-11T01:38:55.506Z,69.34
2019-03-11T01:41:25.369Z,68.94
2019-03-11T01:43:55.887Z,68.68
2019-03-11T01:46:25.528Z,68.22
2019-03-11T01:48:55.503Z,68.04
2019-03-11T01:51:25.151Z,68.05
2019-03-11T01:53:55.594Z,67.86
2019-03-11T01:56:25.473Z,67.60
2019-03-11T01:58:56.205Z,67.35
2019-03-11T02:01:25.852Z,66.92
2019-03-11T02:03:55.499Z,66.81
2019-03-11T02:06:25.311Z,66.74
2019-03-11T02:08:56.209Z,66.41
2019-03-11T02:11:26.139Z,66.78
2019-03-11T02:13:55.924Z,66.64
2019-03-11T02:16:25.655Z,66.41
2019-03-11T02:18:55.819Z,66.81
2019-03-11T02:21:25.584Z,66.62
2019-03-11T02:23:55.468Z,66.40
2019-03-11T02:26:25.436Z,65.78
2019-03-11T02:28:55.342Z,65.78
2019-03-11T02:31:25.040Z,65.64
2019-03-11T02:33:54.709Z,65.91
2019-03-11T02:36:24.796Z,65.34
2019-03-11T02:38:54.831Z,65.58
2019-03-11T02:41:24.884Z,65.18
2019-03-11T02:43:55.360Z,65.61
2019-03-11T02:46:25.016Z,65.33
2019-03-11T02:48:54.654Z,65.61
2019-03-11T02:51:24.440Z,65.83
2019-03-11T02:53:54.728Z,65.65
2019-03-11T02:56:24.636Z,65.71
2019-03-11T02:58:55.315Z,65.72
2019-03-11T03:01:39.443Z,65.81
2019-03-11T03:04:14.220Z,66.16
2019-03-11T03:06:43.961Z,66.06
2019-03-11T03:09:14.563Z,66.28
2019-03-11T03:11:44.323Z,66.60
2019-03-11T03:14:14.276Z,67.03
2019-03-11T03:16:43.894Z,67.00
2019-03-11T03:19:14.547Z,66.97
2019-03-11T03:21:44.327Z,67.25
2019-03-11T03:24:14.143Z,67.30
2019-03-11T03:26:44.126Z,67.15
2019-03-11T03:29:13.785Z,67.23
2019-03-11T03:31:43.438Z,67.35
2019-03-11T03:34:13.461Z,67.55
2019-03-11T03:36:43.360Z,67.65
2019-03-11T03:39:13.373Z,67.53
2019-03-11T03:41:43.374Z,67.52
2019-03-11T03:44:13.214Z,67.56
2019-03-11T03:46:43.220Z,67.49
2019-03-11T03:49:14.119Z,67.38
2019-03-11T03:51:43.826Z,67.55
2019-03-11T03:54:13.514Z,67.33
2019-03-11T03:56:43.216Z,67.49
2019-03-11T03:59:12.937Z,67.59
2019-03-11T04:01:42.687Z,67.69
2019-03-11T04:04:12.625Z,67.75
2019-03-11T04:06:42.849Z,67.82
2019-03-11T04:09:12.956Z,68.00
2019-03-11T04:11:42.607Z,68.00
2019-03-11T04:14:12.235Z,68.32
2019-03-11T04:16:41.900Z,68.60
2019-03-11T04:19:11.537Z,68.71
2019-03-11T04:21:41.156Z,68.54
2019-03-11T04:24:10.942Z,68.45
2019-03-11T04:26:40.579Z,68.57
2019-03-11T04:29:10.304Z,68.72
2019-03-11T04:31:40.382Z,68.78
2019-03-11T04:34:10.173Z,68.76
2019-03-11T04:36:39.911Z,68.89
2019-03-11T04:39:09.889Z,69.30
2019-03-11T04:41:39.557Z,70.15
2019-03-11T04:44:09.516Z,70.73
2019-03-11T04:46:39.470Z,71.24
2019-03-11T04:49:09.513Z,71.72
2019-03-11T04:51:39.098Z,72.18
2019-03-11T04:54:08.754Z,72.23
2019-03-11T04:56:38.780Z,72.65
2019-03-11T04:59:12.634Z,72.79
2019-03-11T05:01:42.281Z,73.06
2019-03-11T05:04:12.036Z,73.10
2019-03-11T05:06:43.053Z,73.45
2019-03-11T05:09:13.717Z,73.60
2019-03-11T05:11:43.724Z,73.56
2019-03-11T05:14:13.391Z,73.78
2019-03-11T05:16:43.003Z,73.66
2019-03-11T05:19:12.698Z,73.51
2019-03-11T05:21:42.660Z,73.40
2019-03-11T05:24:12.831Z,73.16
2019-03-11T05:26:42.569Z,72.91
2019-03-11T05:29:12.330Z,72.96
2019-03-11T05:31:42.318Z,72.84
2019-03-11T05:34:12.631Z,72.65
2019-03-11T05:36:42.273Z,72.40
2019-03-11T05:39:12.069Z,71.82
2019-03-11T05:41:41.690Z,71.39
2019-03-11T05:44:14.437Z,71.16
2019-03-11T05:46:49.280Z,70.97
2019-03-11T05:49:18.877Z,70.93
2019-03-11T05:51:51.411Z,71.23
2019-03-11T05:54:20.367Z,71.34
2019-03-11T05:56:50.078Z,71.56
2019-03-11T05:59:20.673Z,71.90
2019-03-11T06:01:50.333Z,71.98
2019-03-11T06:04:19.968Z,72.16
2019-03-11T06:06:49.677Z,72.00
2019-03-11T06:09:19.422Z,71.79
2019-03-11T06:11:49.687Z,71.73
2019-03-11T06:14:19.411Z,71.61
2019-03-11T06:16:49.262Z,71.43
2019-03-11T06:19:19.015Z,71.41
2019-03-11T06:22:00.775Z,71.12
2019-03-11T06:24:30.754Z,71.05
2019-03-11T06:27:00.349Z,70.92
2019-03-11T06:29:30.981Z,70.71
2019-03-11T06:32:00.637Z,70.25
2019-03-11T06:34:30.273Z,70.05
2019-03-11T06:37:00.280Z,69.93
2019-03-11T06:39:29.962Z,69.92
2019-03-11T06:42:00.193Z,69.74
2019-03-11T06:44:30.158Z,69.47
2019-03-11T06:47:00.310Z,69.19
2019-03-11T06:49:30.446Z,69.08
2019-03-11T06:52:00.073Z,69.37
2019-03-11T06:54:29.766Z,68.79
2019-03-11T06:56:59.477Z,68.81
2019-03-11T06:59:29.123Z,68.47
2019-03-11T07:01:58.752Z,67.78
2019-03-11T07:04:28.496Z,67.64
2019-03-11T07:06:58.144Z,67.46
2019-03-11T07:09:27.959Z,67.30
2019-03-11T07:11:57.581Z,67.18
2019-03-11T07:14:27.276Z,67.21
2019-03-11T07:16:57.249Z,66.76
2019-03-11T07:19:27.132Z,66.80
2019-03-11T07:21:56.745Z,66.51
2019-03-11T07:24:29.729Z,65.81
2019-03-11T07:26:59.361Z,65.62
2019-03-11T07:29:29.239Z,65.59
2019-03-11T07:31:58.896Z,65.53
2019-03-11T07:34:28.911Z,64.94
2019-03-11T07:36:58.782Z,64.92
2019-03-11T07:39:28.464Z,64.95
2019-03-11T07:41:58.074Z,64.73
2019-03-11T07:44:27.700Z,64.45
2019-03-11T07:46:57.326Z,64.27
2019-03-11T07:49:27.263Z,63.79
2019-03-11T07:51:56.863Z,63.37
2019-03-11T07:54:35.446Z,63.30
2019-03-11T07:56:58.144Z,63.01
2019-03-11T07:59:27.888Z,63.46
2019-03-11T08:01:57.872Z,63.25
2019-03-11T08:04:27.929Z,62.28
2019-03-11T08:06:57.811Z,62.64
2019-03-11T08:09:37.196Z,62.66
2019-03-11T08:11:59.313Z,62.43
2019-03-11T08:14:29.030Z,62.11
2019-03-11T08:16:58.706Z,62.65
2019-03-11T08:19:28.337Z,61.76
2019-03-11T08:21:57.948Z,60.81
2019-03-11T08:24:27.813Z,61.00
2019-03-11T08:26:57.495Z,61.59
2019-03-11T08:29:27.508Z,61.18
2019-03-11T08:31:57.369Z,61.17
2019-03-11T08:34:27.298Z,61.47
2019-03-11T08:36:56.991Z,61.46
2019-03-11T08:39:26.978Z,61.24
2019-03-11T08:41:56.839Z,61.45
2019-03-11T08:44:26.469Z,61.77
2019-03-11T08:46:56.131Z,61.99
2019-03-11T08:49:26.004Z,62.22
2019-03-11T08:51:55.688Z,62.14
2019-03-11T08:54:25.808Z,62.04
2019-03-11T08:56:55.790Z,62.61
2019-03-11T08:59:25.982Z,62.36
2019-03-11T09:01:55.713Z,62.42
2019-03-11T09:04:25.337Z,62.51
2019-03-11T09:06:54.979Z,62.38
2019-03-11T09:09:24.933Z,62.70
2019-03-11T09:11:54.567Z,62.54
2019-03-11T09:14:24.194Z,62.72
2019-03-11T09:16:53.934Z,62.68
2019-03-11T09:19:24.129Z,62.73
2019-03-11T09:21:53.775Z,63.04
2019-03-11T09:24:23.485Z,62.63
2019-03-11T09:26:54.566Z,62.58
2019-03-11T09:29:24.181Z,62.65
2019-03-11T09:31:54.025Z,62.74
2019-03-11T09:34:23.684Z,62.79
2019-03-11T09:36:53.329Z,62.66
2019-03-11T09:39:22.972Z,62.56
2019-03-11T09:41:52.933Z,62.32
2019-03-11T09:44:22.607Z,62.05
2019-03-11T09:46:52.225Z,61.88
2019-03-11T09:49:21.956Z,61.96
2019-03-11T09:51:51.598Z,61.50
2019-03-11T09:54:21.226Z,61.47
2019-03-11T09:56:51.910Z,61.65
2019-03-11T09:59:21.581Z,61.70
2019-03-11T10:01:51.216Z,61.76
2019-03-11T10:04:20.890Z,61.97
2019-03-11T10:06:50.515Z,62.19
2019-03-11T10:09:20.152Z,62.43
2019-03-11T10:11:50.574Z,62.99
2019-03-11T10:14:20.207Z,63.34
2019-03-11T10:16:49.870Z,63.78
2019-03-11T10:19:19.910Z,64.10
2019-03-11T10:21:49.749Z,64.04
2019-03-11T10:24:19.742Z,64.35
2019-03-11T10:26:49.794Z,65.07
2019-03-11T10:29:21.232Z,66.41
2019-03-11T10:31:51.089Z,67.07
2019-03-11T10:34:20.755Z,66.86
2019-03-11T10:36:50.652Z,66.17
2019-03-11T10:39:20.600Z,65.74
2019-03-11T10:41:50.584Z,65.80
2019-03-11T10:44:20.275Z,65.04
2019-03-11T10:46:50.125Z,64.99
2019-03-11T10:49:20.146Z,64.75
2019-03-11T10:51:50.160Z,65.69
2019-03-11T10:54:20.202Z,65.23
2019-03-11T10:56:50.300Z,65.14
2019-03-11T10:59:20.597Z,66.58
2019-03-11T11:01:50.639Z,66.68
2019-03-11T11:04:20.510Z,67.04
2019-03-11T11:06:50.444Z,66.30
2019-03-11T11:09:22.586Z,66.26
2019-03-11T11:11:52.549Z,66.46
2019-03-11T11:14:22.182Z,66.30
2019-03-11T11:16:51.828Z,65.89
2019-03-11T11:19:21.538Z,65.27
2019-03-11T11:21:51.181Z,65.54
2019-03-11T11:24:21.112Z,65.19
2019-03-11T11:26:53.036Z,65.25
2019-03-11T11:29:22.960Z,64.03
2019-03-11T11:31:52.578Z,64.00
2019-03-11T11:34:22.874Z,64.52
2019-03-11T11:36:52.530Z,64.24
2019-03-11T11:39:22.183Z,64.25
2019-03-11T11:41:52.128Z,64.42
2019-03-11T11:44:22.334Z,65.17
2019-03-11T11:46:52.363Z,65.43
2019-03-11T11:49:23.244Z,65.85
2019-03-11T11:51:53.208Z,66.17
2019-03-11T11:54:22.841Z,66.75
2019-03-11T11:56:52.452Z,66.74
2019-03-11T11:59:22.098Z,66.61
2019-03-11T12:02:03.634Z,66.44
2019-03-11T12:04:27.843Z,66.22
2019-03-11T12:06:57.641Z,66.02
2019-03-11T12:09:27.267Z,65.44
2019-03-11T12:11:56.927Z,65.38
2019-03-11T12:14:26.767Z,65.49
2019-03-11T12:16:56.413Z,65.59
2019-03-11T12:19:26.367Z,65.54
2019-03-11T12:21:56.011Z,65.18
2019-03-11T12:24:26.008Z,65.07
2019-03-11T12:26:56.152Z,63.65
2019-03-11T12:29:27.875Z,62.63
2019-03-11T12:31:57.435Z,62.63
2019-03-11T12:34:27.052Z,63.13
2019-03-11T12:36:57.006Z,62.03
2019-03-11T12:39:26.909Z,61.22
2019-03-11T12:41:56.536Z,61.16
2019-03-11T12:44:26.431Z,61.86
2019-03-11T12:46:56.309Z,61.44
2019-03-11T12:49:25.920Z,61.09
2019-03-11T12:51:55.611Z,61.48
2019-03-11T12:54:25.513Z,62.31
2019-03-11T12:56:55.268Z,62.48
2019-03-11T12:59:25.845Z,62.24
2019-03-11T13:01:56.258Z,61.55
2019-03-11T13:04:26.281Z,61.03
2019-03-11T13:06:58.896Z,60.90
2019-03-11T13:09:28.540Z,61.51
2019-03-11T13:11:59.185Z,61.57
2019-03-11T13:14:28.821Z,62.55
2019-03-11T13:16:59.429Z,62.29
2019-03-11T13:19:30.173Z,63.50
2019-03-11T13:21:59.927Z,63.73
2019-03-11T13:24:30.228Z,64.01
2019-03-11T13:27:00.281Z,63.79
2019-03-11T13:29:31.190Z,63.74
2019-03-11T13:32:00.872Z,63.05
2019-03-11T13:34:30.611Z,62.23
2019-03-11T13:37:00.307Z,61.58
2019-03-11T13:39:30.025Z,61.27
2019-03-11T13:41:59.628Z,61.32
2019-03-11T13:44:29.548Z,60.82
2019-03-11T13:46:59.350Z,61.07
2019-03-11T13:49:29.386Z,61.35
2019-03-11T13:51:59.097Z,61.69
2019-03-11T13:54:28.767Z,62.48
2019-03-11T13:56:58.437Z,63.08
2019-03-11T13:59:28.598Z,63.38
2019-03-11T14:01:59.040Z,64.35
2019-03-11T14:04:28.701Z,65.74
2019-03-11T14:06:58.642Z,66.71
2019-03-11T14:09:28.623Z,67.79
2019-03-11T14:11:58.269Z,69.57
2019-03-11T14:14:28.225Z,70.70
2019-03-11T14:16:58.217Z,71.52
2019-03-11T14:19:27.849Z,71.96
2019-03-11T14:21:57.481Z,72.09
2019-03-11T14:24:27.158Z,72.33
2019-03-11T14:26:57.029Z,72.95
2019-03-11T14:29:28.788Z,72.93
2019-03-11T14:31:58.918Z,73.23
2019-03-11T14:34:28.845Z,73.05
2019-03-11T14:36:58.536Z,73.04
2019-03-11T14:39:28.241Z,72.75
2019-03-11T14:41:57.990Z,72.77
2019-03-11T14:44:28.578Z,72.75
2019-03-11T14:46:58.471Z,72.83
2019-03-11T14:49:28.125Z,72.93
2019-03-11T14:51:58.056Z,72.69
2019-03-11T14:54:27.848Z,72.69
2019-03-11T14:56:57.468Z,72.17
2019-03-11T14:59:28.119Z,72.35
2019-03-11T15:01:58.324Z,72.42
2019-03-11T15:04:28.352Z,72.49
2019-03-11T15:06:58.005Z,72.29
2019-03-11T15:09:27.917Z,72.45
2019-03-11T15:11:57.771Z,72.31
2019-03-11T15:14:28.631Z,72.23
2019-03-11T15:16:58.515Z,72.29
2019-03-11T15:19:28.254Z,72.25
2019-03-11T15:21:58.163Z,72.19
2019-03-11T15:24:28.170Z,72.18
2019-03-11T15:26:57.854Z,72.16
2019-03-11T15:29:27.835Z,71.99
2019-03-11T15:31:57.814Z,71.85
2019-03-11T15:34:27.898Z,71.65
2019-03-11T15:36:57.655Z,71.51
2019-03-11T15:39:27.346Z,71.72
2019-03-11T15:41:57.184Z,71.89
2019-03-11T15:44:27.685Z,71.56
2019-03-11T15:46:58.685Z,71.74
2019-03-11T15:49:28.396Z,71.85
2019-03-11T15:51:58.374Z,72.12
2019-03-11T15:54:28.007Z,72.35
2019-03-11T15:56:57.984Z,72.24
2019-03-11T15:59:27.628Z,72.61
2019-03-11T16:01:57.296Z,72.89
2019-03-11T16:04:27.036Z,73.24
2019-03-11T16:06:56.686Z,73.49
2019-03-11T16:09:26.359Z,73.54
2019-03-11T16:11:56.135Z,73.54
2019-03-11T16:14:26.724Z,73.42
2019-03-11T16:16:56.940Z,73.51
2019-03-11T16:19:26.784Z,73.37
2019-03-11T16:21:59.422Z,73.45
2019-03-11T16:24:29.370Z,73.80
2019-03-11T16:26:59.052Z,73.88
2019-03-11T16:29:28.690Z,73.95
2019-03-11T16:31:58.309Z,73.95
2019-03-11T16:34:30.034Z,73.85
2019-03-11T16:36:59.902Z,73.80
2019-03-11T16:39:30.752Z,73.90
2019-03-11T16:42:00.483Z,74.00
2019-03-11T16:44:30.114Z,73.87
2019-03-11T16:47:00.128Z,73.93
2019-03-11T16:49:30.089Z,73.81
2019-03-11T16:51:59.782Z,73.90
2019-03-11T16:54:29.632Z,73.70
2019-03-11T16:56:59.312Z,73.40
2019-03-11T16:59:28.975Z,72.96
2019-03-11T17:01:58.596Z,72.84
2019-03-11T17:04:28.313Z,72.91
2019-03-11T17:06:57.967Z,72.79
2019-03-11T17:09:27.702Z,72.78
2019-03-11T17:11:57.649Z,72.85
2019-03-11T17:14:27.363Z,73.13
2019-03-11T17:16:57.018Z,73.52
2019-03-11T17:19:27.036Z,73.51
2019-03-11T17:21:56.669Z,73.45
2019-03-11T17:24:26.286Z,73.69
2019-03-11T17:26:55.916Z,73.26
2019-03-11T17:29:25.798Z,73.56
2019-03-11T17:31:55.509Z,73.73
2019-03-11T17:34:25.329Z,73.69
2019-03-11T17:36:54.995Z,73.77
2019-03-11T17:39:24.629Z,73.78
2019-03-11T17:41:54.306Z,73.84
2019-03-11T17:44:23.924Z,73.89
2019-03-11T17:46:54.033Z,73.91
2019-03-11T17:49:23.647Z,73.85
2019-03-11T17:51:53.477Z,74.03
2019-03-11T17:54:23.821Z,73.79
2019-03-11T17:56:53.717Z,73.71
2019-03-11T17:59:23.609Z,73.97
2019-03-11T18:01:53.645Z,74.05
2019-03-11T18:04:23.385Z,74.06
2019-03-11T18:06:54.423Z,74.05
2019-03-11T18:09:24.160Z,74.21
2019-03-11T18:11:53.832Z,74.12
2019-03-11T18:14:24.788Z,74.32
2019-03-11T18:16:54.751Z,74.15
2019-03-11T18:19:24.639Z,74.11
2019-03-11T18:21:54.385Z,74.15
2019-03-11T18:24:24.021Z,74.35
2019-03-11T18:26:53.635Z,74.35
2019-03-11T18:29:24.248Z,74.23
2019-03-11T18:32:01.553Z,74.22
2019-03-11T18:34:27.102Z,74.45
2019-03-11T18:36:56.753Z,74.43
2019-03-11T18:39:26.671Z,74.53
2019-03-11T18:41:56.679Z,74.47
2019-03-11T18:44:26.343Z,74.57
2019-03-11T18:46:56.075Z,74.62
2019-03-11T18:49:26.019Z,74.51
2019-03-11T18:51:55.718Z,74.69
2019-03-11T18:54:25.724Z,74.69
2019-03-11T18:56:55.671Z,74.79
2019-03-11T18:59:25.813Z,74.80
2019-03-11T19:01:55.743Z,74.60
2019-03-11T19:04:25.504Z,74.78
2019-03-11T19:06:55.409Z,74.71
2019-03-11T19:09:25.209Z,74.97
2019-03-11T19:11:54.838Z,75.13
2019-03-11T19:14:24.473Z,75.16
2019-03-11T19:16:54.294Z,75.26
2019-03-11T19:19:23.965Z,75.40
2019-03-11T19:21:53.652Z,75.36
2019-03-11T19:24:23.501Z,75.36
2019-03-11T19:26:55.658Z,75.48
2019-03-11T19:29:24.848Z,75.28
2019-03-11T19:31:54.497Z,75.08
2019-03-11T19:34:24.130Z,74.92
2019-03-11T19:36:54.412Z,74.78
2019-03-11T19:39:24.075Z,74.70
2019-03-11T19:41:53.739Z,74.63
2019-03-11T19:44:23.900Z,74.34
2019-03-11T19:46:55.638Z,74.12
2019-03-11T19:49:25.986Z,74.00
2019-03-11T19:51:56.379Z,73.87
2019-03-11T19:54:26.554Z,73.84
2019-03-11T19:56:56.475Z,73.72
2019-03-11T19:59:26.812Z,73.66
2019-03-11T20:01:57.026Z,73.55
2019-03-11T20:04:27.875Z,73.47
2019-03-11T20:06:58.969Z,73.49
2019-03-11T20:09:29.237Z,73.60
2019-03-11T20:11:59.863Z,73.53
2019-03-11T20:14:30.056Z,73.61
2019-03-11T20:17:00.196Z,73.59
2019-03-11T20:19:30.666Z,73.75
2019-03-11T20:22:01.001Z,73.79
2019-03-11T20:24:30.921Z,73.76
2019-03-11T20:27:01.956Z,73.75
2019-03-11T20:29:34.337Z,73.66
2019-03-11T20:32:05.432Z,73.73
2019-03-11T20:34:35.440Z,73.74
2019-03-11T20:37:05.161Z,73.79
2019-03-11T20:39:35.062Z,73.89
2019-03-11T20:42:04.988Z,73.85
2019-03-11T20:44:35.694Z,73.81
2019-03-11T20:47:05.462Z,73.66
2019-03-11T20:49:35.154Z,73.45
2019-03-11T20:52:05.128Z,73.44
2019-03-11T20:54:35.240Z,73.41
2019-03-11T20:57:04.894Z,73.49
2019-03-11T20:59:34.658Z,73.43
2019-03-11T21:02:04.530Z,73.48
2019-03-11T21:04:34.743Z,73.37
2019-03-11T21:07:04.634Z,73.20
2019-03-11T21:09:34.741Z,73.45
2019-03-11T21:12:04.505Z,73.49
2019-03-11T21:14:34.278Z,73.51
2019-03-11T21:17:03.948Z,73.65
2019-03-11T21:19:33.916Z,73.73
2019-03-11T21:22:03.568Z,73.59
2019-03-11T21:24:33.741Z,73.62
2019-03-11T21:27:03.379Z,73.63
2019-03-11T21:29:33.533Z,73.60
2019-03-11T21:32:04.497Z,73.54
2019-03-11T21:34:34.500Z,73.50
2019-03-11T21:37:04.241Z,73.65
2019-03-11T21:39:34.079Z,73.58
2019-03-11T21:42:05.646Z,73.37
2019-03-11T21:44:36.161Z,73.42
2019-03-11T21:47:05.915Z,73.29
2019-03-11T21:49:35.995Z,73.23
2019-03-11T21:52:05.881Z,73.25
2019-03-11T21:54:35.662Z,73.31
2019-03-11T21:57:05.555Z,73.14
2019-03-11T21:59:35.207Z,73.11
2019-03-11T22:02:04.898Z,73.10
2019-03-11T22:04:34.623Z,73.22
2019-03-11T22:07:04.373Z,73.19
2019-03-11T22:09:34.020Z,73.04
2019-03-11T22:12:03.768Z,73.32
2019-03-11T22:14:33.545Z,73.23
2019-03-11T22:17:03.692Z,73.21
2019-03-11T22:19:33.338Z,73.07
2019-03-11T22:22:02.970Z,73.04
2019-03-11T22:24:32.847Z,72.94
2019-03-11T22:27:02.787Z,72.98
2019-03-11T22:29:33.563Z,73.05
2019-03-11T22:32:03.143Z,72.97
2019-03-11T22:34:33.470Z,72.94
2019-03-11T22:37:03.143Z,73.03
2019-03-11T22:39:32.787Z,73.01
2019-03-11T22:42:02.435Z,72.77
2019-03-11T22:44:32.111Z,72.93
2019-03-11T22:47:01.756Z,73.24
2019-03-11T22:49:31.427Z,73.34
2019-03-11T22:52:01.136Z,73.25
2019-03-11T22:54:30.769Z,73.31
2019-03-11T22:57:00.748Z,73.09
2019-03-11T22:59:30.875Z,73.07
2019-03-11T23:02:00.656Z,73.25
2019-03-11T23:04:30.351Z,73.20
2019-03-11T23:07:00.305Z,73.23
2019-03-11T23:09:30.341Z,73.30
2019-03-11T23:12:00.001Z,73.18
2019-03-11T23:14:29.703Z,73.14
2019-03-11T23:16:59.347Z,73.23
2019-03-11T23:19:29.452Z,73.38
2019-03-11T23:21:59.095Z,73.38
2019-03-11T23:24:28.774Z,73.37
2019-03-11T23:26:58.480Z,73.38
2019-03-11T23:29:28.102Z,73.20
2019-03-11T23:31:57.744Z,73.17
2019-03-11T23:34:27.647Z,73.13
2019-03-11T23:36:57.560Z,73.12
2019-03-11T23:39:27.255Z,73.00
2019-03-11T23:41:56.898Z,73.11
2019-03-11T23:44:26.549Z,73.05
2019-03-11T23:46:56.251Z,73.14
2019-03-11T23:49:25.905Z,73.04
2019-03-11T23:51:55.777Z,72.85
2019-03-11T23:54:25.547Z,72.96
2019-03-11T23:56:55.175Z,73.13
2019-03-11T23:59:25.366Z,73.10
